createdAt,value
2018-09-01T00:01:28.223Z,6.83
2018-09-01T00:03:58.408Z,6.07
2018-09-01T00:06:28.912Z,6.53
2018-09-01T00:08:59.029Z,6.07
2018-09-01T00:11:29.909Z,6.30
2018-09-01T00:14:00.102Z,6.37
2018-09-01T00:16:30.230Z,6.60
2018-09-01T00:19:00.935Z,6.43
2018-09-01T00:21:30.935Z,5.67
2018-09-01T00:24:05.373Z,5.87
2018-09-01T00:26:35.616Z,6.20
2018-09-01T00:29:06.193Z,5.90
2018-09-01T00:31:36.382Z,5.70
2018-09-01T00:34:07.471Z,6.30
2018-09-01T00:36:38.030Z,6.03
2018-09-01T00:39:09.106Z,6.03
2018-09-01T00:41:39.150Z,5.80
2018-09-01T00:44:10.017Z,5.93
2018-09-01T00:46:40.420Z,6.20
2018-09-01T00:49:11.183Z,6.00
2018-09-01T00:51:41.329Z,5.87
2018-09-01T00:54:11.834Z,5.50
2018-09-01T00:56:41.924Z,5.73
2018-09-01T00:59:12.480Z,5.70
2018-09-01T01:01:42.602Z,5.73
2018-09-01T01:04:12.699Z,5.80
2018-09-01T01:06:50.339Z,5.67
2018-09-01T01:09:21.385Z,6.00
2018-09-01T01:11:51.564Z,5.80
2018-09-01T01:14:21.708Z,5.73
2018-09-01T01:16:52.452Z,5.73
2018-09-01T01:19:22.489Z,5.60
2018-09-01T01:21:52.807Z,5.83
2018-09-01T01:24:23.485Z,5.47
2018-09-01T01:26:56.401Z,5.60
2018-09-01T01:29:27.442Z,6.00
2018-09-01T01:31:57.532Z,5.80
2018-09-01T01:34:28.282Z,5.53
2018-09-01T01:36:58.572Z,6.03
2018-09-01T01:39:28.770Z,5.80
2018-09-01T01:41:58.814Z,5.97
2018-09-01T01:44:29.677Z,6.00
2018-09-01T01:47:00.541Z,5.90
2018-09-01T01:49:30.946Z,6.50
2018-09-01T01:52:01.311Z,6.27
2018-09-01T01:54:31.422Z,6.10
2018-09-01T01:57:01.758Z,5.80
2018-09-01T01:59:32.103Z,6.07
2018-09-01T02:02:02.219Z,6.40
2018-09-01T02:04:32.934Z,6.33
2018-09-01T02:07:03.077Z,6.87
2018-09-01T02:09:33.706Z,6.50
2018-09-01T02:12:03.888Z,6.33
2018-09-01T02:14:34.101Z,5.90
2018-09-01T02:17:04.965Z,5.93
2018-09-01T02:19:35.213Z,6.03
2018-09-01T02:22:05.565Z,5.60
2018-09-01T02:24:35.690Z,5.43
2018-09-01T02:27:06.206Z,6.03
2018-09-01T02:29:36.958Z,5.60
2018-09-01T02:32:07.055Z,5.60
2018-09-01T02:34:37.233Z,5.77
2018-09-01T02:37:07.326Z,5.93
2018-09-01T02:39:37.526Z,5.40
2018-09-01T02:42:07.738Z,5.97
2018-09-01T02:44:38.331Z,6.10
2018-09-01T02:47:08.571Z,6.07
2018-09-01T02:49:39.376Z,6.20
2018-09-01T02:52:10.064Z,6.27
2018-09-01T02:54:40.326Z,6.30
2018-09-01T02:57:11.066Z,6.80
2018-09-01T02:59:41.443Z,6.23
2018-09-01T03:02:11.550Z,5.97
2018-09-01T03:04:41.851Z,7.00
2018-09-01T03:07:17.893Z,6.63
2018-09-01T03:09:48.847Z,6.33
2018-09-01T03:12:19.153Z,6.50
2018-09-01T03:14:49.999Z,6.30
2018-09-01T03:17:20.838Z,6.10
2018-09-01T03:19:51.085Z,6.07
2018-09-01T03:22:21.698Z,5.97
2018-09-01T03:24:52.043Z,5.80
2018-09-01T03:27:22.224Z,6.53
2018-09-01T03:29:53.327Z,6.27
2018-09-01T03:32:23.535Z,6.07
2018-09-01T03:34:54.203Z,5.67
2018-09-01T03:37:24.897Z,5.77
2018-09-01T03:39:55.324Z,5.03
2018-09-01T03:42:25.563Z,5.63
2018-09-01T03:44:55.592Z,5.37
2018-09-01T03:47:25.949Z,5.40
2018-09-01T03:49:56.673Z,4.90
2018-09-01T03:52:26.869Z,5.50
2018-09-01T03:54:57.491Z,5.70
2018-09-01T03:57:27.976Z,5.83
2018-09-01T03:59:58.217Z,5.30
2018-09-01T04:02:28.866Z,5.47
2018-09-01T04:04:59.096Z,5.30
2018-09-01T04:07:30.201Z,5.27
2018-09-01T04:10:00.964Z,5.40
2018-09-01T04:12:31.247Z,4.90
2018-09-01T04:15:01.471Z,5.13
2018-09-01T04:17:31.829Z,4.70
2018-09-01T04:20:01.908Z,4.60
2018-09-01T04:22:32.093Z,4.83
2018-09-01T04:25:02.192Z,5.17
2018-09-01T04:27:32.290Z,4.87
2018-09-01T04:30:02.574Z,4.87
2018-09-01T04:32:32.725Z,4.80
2018-09-01T04:35:02.825Z,4.70
2018-09-01T04:37:32.996Z,4.70
2018-09-01T04:40:03.093Z,4.73
2018-09-01T04:42:33.244Z,4.60
2018-09-01T04:45:03.446Z,4.67
2018-09-01T04:47:33.860Z,4.40
2018-09-01T04:50:04.209Z,4.47
2018-09-01T04:52:34.276Z,4.30
2018-09-01T04:55:04.383Z,5.43
2018-09-01T04:57:34.625Z,4.57
2018-09-01T05:00:05.223Z,4.53
2018-09-01T05:02:35.412Z,4.80
2018-09-01T05:05:05.581Z,4.77
2018-09-01T05:07:40.005Z,4.60
2018-09-01T05:10:14.255Z,4.40
2018-09-01T05:12:45.923Z,4.40
2018-09-01T05:15:16.123Z,4.57
2018-09-01T05:17:46.232Z,4.40
2018-09-01T05:20:16.484Z,4.23
2018-09-01T05:22:46.561Z,4.10
2018-09-01T05:25:16.703Z,3.90
2018-09-01T05:27:46.755Z,4.17
2018-09-01T05:30:17.173Z,3.77
2018-09-01T05:32:47.714Z,3.90
2018-09-01T05:35:17.835Z,3.87
2018-09-01T05:37:48.078Z,4.10
2018-09-01T05:40:18.172Z,3.90
2018-09-01T05:42:48.316Z,4.03
2018-09-01T05:45:18.485Z,4.20
2018-09-01T05:47:48.687Z,4.10
2018-09-01T05:50:18.965Z,3.50
2018-09-01T05:52:49.129Z,3.70
2018-09-01T05:55:19.810Z,4.13
2018-09-01T05:57:50.109Z,3.40
2018-09-01T06:00:22.997Z,3.40
2018-09-01T06:02:54.224Z,3.43
2018-09-01T06:05:24.720Z,3.57
2018-09-01T06:07:55.621Z,3.83
2018-09-01T06:10:26.117Z,3.60
2018-09-01T06:12:57.519Z,3.33
2018-09-01T06:15:28.645Z,3.93
2018-09-01T06:17:59.708Z,3.20
2018-09-01T06:20:30.026Z,3.30
2018-09-01T06:23:00.186Z,3.40
2018-09-01T06:25:30.688Z,3.70
2018-09-01T06:28:04.557Z,3.10
2018-09-01T06:30:37.444Z,3.20
2018-09-01T06:33:07.806Z,3.30
2018-09-01T06:35:38.140Z,3.50
2018-09-01T06:38:08.604Z,2.93
2018-09-01T06:40:38.972Z,3.23
2018-09-01T06:43:09.553Z,3.30
2018-09-01T06:45:39.972Z,2.73
2018-09-01T06:48:10.326Z,2.70
2018-09-01T06:50:40.532Z,2.80
2018-09-01T06:53:10.893Z,2.80
2018-09-01T06:55:41.033Z,2.63
2018-09-01T06:58:11.332Z,2.90
2018-09-01T07:00:41.580Z,2.60
2018-09-01T07:03:12.196Z,2.90
2018-09-01T07:05:42.508Z,2.40
2018-09-01T07:08:12.723Z,2.53
2018-09-01T07:10:42.871Z,2.63
2018-09-01T07:13:13.091Z,2.60
2018-09-01T07:15:43.329Z,2.73
2018-09-01T07:18:13.711Z,2.70
2018-09-01T07:20:44.167Z,2.70
2018-09-01T07:23:14.407Z,2.23
2018-09-01T07:25:44.934Z,2.50
2018-09-01T07:28:15.250Z,2.40
2018-09-01T07:30:45.587Z,2.30
2018-09-01T07:33:15.901Z,2.00
2018-09-01T07:35:46.173Z,2.50
2018-09-01T07:38:17.615Z,2.20
2018-09-01T07:40:48.273Z,2.30
2018-09-01T07:43:18.472Z,2.03
2018-09-01T07:45:49.188Z,2.37
2018-09-01T07:48:19.331Z,2.00
2018-09-01T07:50:49.826Z,2.20
2018-09-01T07:53:20.332Z,2.10
2018-09-01T07:55:50.803Z,2.23
2018-09-01T07:58:20.841Z,2.00
2018-09-01T08:00:51.035Z,2.30
2018-09-01T08:03:21.147Z,2.33
2018-09-01T08:05:51.404Z,2.23
2018-09-01T08:08:21.512Z,2.37
2018-09-01T08:10:52.024Z,2.33
2018-09-01T08:13:22.189Z,2.53
2018-09-01T08:15:52.409Z,2.57
2018-09-01T08:18:22.431Z,2.70
2018-09-01T08:20:52.509Z,2.50
2018-09-01T08:23:22.906Z,2.30
2018-09-01T08:25:53.563Z,2.30
2018-09-01T08:28:23.641Z,2.30
2018-09-01T08:30:54.000Z,2.13
2018-09-01T08:33:24.618Z,2.50
2018-09-01T08:35:54.638Z,2.00
2018-09-01T08:38:25.363Z,2.40
2018-09-01T08:40:55.813Z,2.20
2018-09-01T08:43:26.437Z,2.20
2018-09-01T08:45:56.670Z,2.00
2018-09-01T08:48:26.856Z,2.23
2018-09-01T08:50:57.540Z,2.13
2018-09-01T08:53:27.768Z,1.80
2018-09-01T08:55:57.799Z,1.93
2018-09-01T08:58:27.871Z,2.00
2018-09-01T09:00:58.160Z,2.03
2018-09-01T09:03:28.314Z,2.10
2018-09-01T09:05:58.407Z,2.07
2018-09-01T09:08:28.509Z,2.20
2018-09-01T09:10:58.614Z,2.00
2018-09-01T09:13:29.091Z,2.07
2018-09-01T09:15:59.355Z,1.90
2018-09-01T09:18:29.634Z,1.97
2018-09-01T09:21:00.138Z,1.80
2018-09-01T09:23:30.602Z,2.13
2018-09-01T09:26:08.951Z,1.87
2018-09-01T09:28:38.997Z,1.70
2018-09-01T09:31:09.471Z,1.90
2018-09-01T09:33:39.509Z,2.13
2018-09-01T09:36:09.869Z,2.20
2018-09-01T09:38:40.439Z,2.20
2018-09-01T09:41:10.574Z,2.10
2018-09-01T09:43:40.764Z,2.17
2018-09-01T09:46:11.011Z,2.23
2018-09-01T09:48:42.142Z,2.10
2018-09-01T09:51:12.286Z,2.10
2018-09-01T09:53:42.475Z,2.10
2018-09-01T09:56:12.657Z,2.30
2018-09-01T09:58:42.760Z,2.10
2018-09-01T10:01:18.268Z,2.43
2018-09-01T10:03:48.574Z,1.93
2018-09-01T10:06:19.400Z,2.20
2018-09-01T10:08:49.444Z,2.17
2018-09-01T10:11:19.734Z,1.93
2018-09-01T10:13:50.886Z,2.10
2018-09-01T10:16:20.983Z,1.80
2018-09-01T10:18:51.033Z,2.00
2018-09-01T10:21:21.622Z,1.97
2018-09-01T10:23:52.724Z,2.00
2018-09-01T10:26:23.020Z,2.10
2018-09-01T10:28:53.097Z,1.73
2018-09-01T10:31:24.323Z,1.70
2018-09-01T10:33:54.936Z,1.90
2018-09-01T10:36:25.379Z,1.80
2018-09-01T10:38:55.833Z,1.60
2018-09-01T10:41:26.462Z,1.80
2018-09-01T10:43:56.507Z,2.27
2018-09-01T10:46:26.587Z,1.90
2018-09-01T10:48:56.630Z,1.80
2018-09-01T10:51:26.829Z,2.03
2018-09-01T10:53:57.400Z,1.60
2018-09-01T10:56:27.772Z,2.10
2018-09-01T10:58:57.936Z,2.00
2018-09-01T11:01:28.414Z,1.73
2018-09-01T11:03:58.829Z,1.83
2018-09-01T11:06:28.792Z,2.00
2018-09-01T11:08:59.200Z,1.77
2018-09-01T11:11:30.237Z,1.93
2018-09-01T11:14:00.362Z,1.97
2018-09-01T11:16:30.454Z,1.80
2018-09-01T11:19:01.281Z,1.93
2018-09-01T11:21:32.009Z,1.70
2018-09-01T11:24:02.478Z,1.80
2018-09-01T11:26:33.084Z,2.00
2018-09-01T11:29:03.629Z,2.17
2018-09-01T11:31:33.715Z,1.70
2018-09-01T11:34:04.354Z,1.90
2018-09-01T11:36:34.652Z,1.80
2018-09-01T11:39:05.717Z,1.90
2018-09-01T11:41:36.331Z,2.10
2018-09-01T11:44:07.342Z,1.90
2018-09-01T11:46:37.859Z,2.03
2018-09-01T11:49:08.960Z,1.67
2018-09-01T11:51:39.276Z,1.77
2018-09-01T11:54:10.219Z,1.90
2018-09-01T11:56:40.700Z,1.80
2018-09-01T11:59:11.246Z,1.83
2018-09-01T12:01:41.278Z,1.83
2018-09-01T12:04:11.310Z,1.93
2018-09-01T12:06:41.427Z,1.97
2018-09-01T12:09:11.651Z,1.87
2018-09-01T12:11:41.651Z,1.53
2018-09-01T12:14:12.193Z,1.93
2018-09-01T12:16:43.285Z,1.80
2018-09-01T12:19:14.247Z,1.70
2018-09-01T12:21:44.970Z,1.60
2018-09-01T12:24:15.616Z,1.80
2018-09-01T12:26:46.458Z,1.67
2018-09-01T12:29:16.477Z,1.80
2018-09-01T12:31:47.771Z,1.60
2018-09-01T12:34:17.925Z,1.80
2018-09-01T12:36:48.114Z,1.60
2018-09-01T12:39:19.593Z,1.77
2018-09-01T12:41:50.708Z,2.03
2018-09-01T12:44:21.157Z,1.77
2018-09-01T12:46:52.149Z,1.87
2018-09-01T12:49:22.781Z,1.77
2018-09-01T12:51:53.579Z,1.80
2018-09-01T12:54:24.152Z,1.70
2018-09-01T12:56:54.241Z,2.00
2018-09-01T12:59:25.549Z,1.80
2018-09-01T13:01:56.336Z,1.67
2018-09-01T13:04:26.370Z,2.20
2018-09-01T13:06:56.817Z,1.80
2018-09-01T13:09:27.953Z,1.60
2018-09-01T13:11:58.354Z,2.00
2018-09-01T13:14:28.786Z,1.90
2018-09-01T13:16:59.404Z,1.77
2018-09-01T13:19:29.350Z,1.80
2018-09-01T13:21:59.683Z,1.93
2018-09-01T13:24:29.729Z,1.77
2018-09-01T13:26:59.850Z,2.10
2018-09-01T13:29:30.005Z,1.80
2018-09-01T13:32:00.227Z,1.90
2018-09-01T13:34:30.959Z,1.90
2018-09-01T13:37:01.037Z,1.90
2018-09-01T13:39:31.777Z,1.80
2018-09-01T13:42:01.859Z,2.20
2018-09-01T13:44:32.364Z,1.97
2018-09-01T13:47:02.890Z,2.20
2018-09-01T13:49:33.825Z,2.17
2018-09-01T13:52:04.356Z,2.00
2018-09-01T13:54:35.106Z,2.00
2018-09-01T13:57:05.621Z,1.87
2018-09-01T13:59:36.071Z,2.27
2018-09-01T14:02:06.253Z,1.90
2018-09-01T14:04:36.878Z,2.00
2018-09-01T14:07:06.920Z,2.13
2018-09-01T14:09:37.893Z,2.17
2018-09-01T14:12:08.482Z,2.00
2018-09-01T14:14:38.693Z,1.83
2018-09-01T14:17:09.142Z,1.80
2018-09-01T14:19:39.250Z,2.17
2018-09-01T14:22:09.779Z,2.00
2018-09-01T14:24:39.827Z,2.17
2018-09-01T14:27:10.028Z,2.10
2018-09-01T14:29:40.443Z,2.03
2018-09-01T14:32:10.524Z,1.93
2018-09-01T14:34:40.665Z,2.00
2018-09-01T14:37:11.185Z,2.10
2018-09-01T14:39:42.287Z,2.23
2018-09-01T14:42:12.677Z,2.20
2018-09-01T14:44:42.844Z,2.57
2018-09-01T14:47:13.463Z,1.83
2018-09-01T14:49:44.692Z,2.03
2018-09-01T14:52:14.750Z,2.00
2018-09-01T14:54:45.824Z,2.00
2018-09-01T14:57:16.736Z,2.17
2018-09-01T14:59:47.648Z,2.27
2018-09-01T15:02:17.891Z,2.20
2018-09-01T15:04:48.742Z,1.90
2018-09-01T15:07:19.987Z,2.20
2018-09-01T15:09:51.692Z,2.37
2018-09-01T15:12:22.621Z,2.03
2018-09-01T15:14:53.240Z,2.13
2018-09-01T15:17:23.570Z,1.90
2018-09-01T15:19:54.078Z,2.40
2018-09-01T15:22:24.762Z,1.87
2018-09-01T15:24:55.661Z,2.47
2018-09-01T15:27:25.828Z,2.27
2018-09-01T15:29:56.571Z,2.00
2018-09-01T15:32:26.601Z,2.10
2018-09-01T15:34:57.549Z,2.30
2018-09-01T15:37:27.643Z,2.40
2018-09-01T15:39:58.458Z,2.37
2018-09-01T15:42:28.805Z,2.20
2018-09-01T15:44:58.815Z,2.17
2018-09-01T15:47:28.979Z,2.23
2018-09-01T15:49:59.472Z,2.20
2018-09-01T15:52:30.084Z,2.80
2018-09-01T15:55:00.487Z,2.40
2018-09-01T15:57:30.653Z,2.27
2018-09-01T16:00:00.755Z,2.37
2018-09-01T16:02:31.700Z,2.20
2018-09-01T16:05:02.276Z,2.10
2018-09-01T16:07:32.810Z,2.13
2018-09-01T16:10:02.985Z,2.27
2018-09-01T16:12:33.125Z,1.93
2018-09-01T16:15:03.582Z,2.10
2018-09-01T16:17:34.000Z,2.10
2018-09-01T16:20:04.216Z,1.97
2018-09-01T16:22:34.798Z,2.07
2018-09-01T16:25:05.002Z,2.10
2018-09-01T16:27:35.219Z,2.10
2018-09-01T16:30:05.432Z,1.80
2018-09-01T16:32:36.356Z,2.00
2018-09-01T16:35:07.537Z,2.20
2018-09-01T16:37:37.723Z,2.40
2018-09-01T16:40:07.888Z,2.37
2018-09-01T16:42:38.001Z,2.17
2018-09-01T16:45:08.897Z,2.30
2018-09-01T16:47:39.077Z,2.10
2018-09-01T16:50:09.246Z,2.23
2018-09-01T16:52:39.340Z,2.47
2018-09-01T16:55:09.421Z,2.50
2018-09-01T16:57:39.802Z,2.40
2018-09-01T17:00:10.445Z,2.77
2018-09-01T17:02:40.579Z,2.70
2018-09-01T17:05:11.161Z,2.20
2018-09-01T17:07:41.608Z,2.50
2018-09-01T17:10:12.908Z,2.43
2018-09-01T17:12:43.359Z,2.27
2018-09-01T17:15:13.905Z,3.00
2018-09-01T17:17:44.437Z,2.70
2018-09-01T17:20:14.912Z,2.60
2018-09-01T17:22:44.976Z,2.67
2018-09-01T17:25:15.337Z,3.33
2018-09-01T17:27:46.051Z,2.60
2018-09-01T17:30:16.654Z,2.47
2018-09-01T17:32:46.897Z,2.37
2018-09-01T17:35:16.996Z,2.50
2018-09-01T17:37:47.009Z,2.70
2018-09-01T17:40:17.461Z,2.70
2018-09-01T17:42:47.536Z,2.63
2018-09-01T17:45:17.621Z,2.43
2018-09-01T17:47:47.706Z,2.50
2018-09-01T17:50:17.721Z,2.50
2018-09-01T17:52:47.730Z,2.47
2018-09-01T17:55:17.797Z,2.50
2018-09-01T17:57:48.349Z,2.57
2018-09-01T18:00:18.424Z,2.37
2018-09-01T18:02:48.544Z,2.73
2018-09-01T18:05:18.735Z,2.80
2018-09-01T18:07:49.343Z,2.50
2018-09-01T18:10:19.745Z,2.80
2018-09-01T18:12:50.429Z,2.60
2018-09-01T18:15:21.163Z,2.60
2018-09-01T18:17:51.952Z,2.80
2018-09-01T18:20:22.005Z,2.70
2018-09-01T18:22:52.138Z,2.53
2018-09-01T18:25:22.117Z,2.80
2018-09-01T18:27:52.591Z,2.70
2018-09-01T18:30:22.769Z,3.03
2018-09-01T18:32:52.927Z,3.03
2018-09-01T18:35:24.069Z,3.17
2018-09-01T18:37:54.587Z,2.40
2018-09-01T18:40:25.221Z,2.77
2018-09-01T18:42:56.280Z,2.47
2018-09-01T18:45:26.397Z,2.80
2018-09-01T18:47:56.459Z,2.57
2018-09-01T18:50:26.876Z,2.70
2018-09-01T18:52:57.198Z,2.73
2018-09-01T18:55:27.696Z,2.90
2018-09-01T18:58:03.469Z,2.90
2018-09-01T19:00:33.587Z,2.80
2018-09-01T19:03:03.818Z,2.90
2018-09-01T19:05:34.868Z,3.03
2018-09-01T19:08:06.007Z,3.10
2018-09-01T19:10:36.060Z,3.00
2018-09-01T19:13:06.104Z,3.43
2018-09-01T19:15:36.229Z,3.33
2018-09-01T19:18:06.394Z,3.37
2018-09-01T19:20:36.532Z,2.80
2018-09-01T19:23:06.797Z,3.10
2018-09-01T19:25:37.678Z,2.63
2018-09-01T19:28:07.795Z,3.10
2018-09-01T19:30:38.887Z,3.00
2018-09-01T19:33:09.269Z,2.90
2018-09-01T19:35:39.729Z,3.13
2018-09-01T19:38:09.915Z,3.07
2018-09-01T19:40:40.210Z,2.97
2018-09-01T19:43:10.687Z,3.00
2018-09-01T19:45:40.949Z,2.77
2018-09-01T19:48:11.159Z,3.00
2018-09-01T19:50:41.276Z,2.63
2018-09-01T19:53:12.281Z,2.80
2018-09-01T19:55:42.911Z,2.70
2018-09-01T19:58:12.906Z,2.87
2018-09-01T20:00:42.900Z,2.60
2018-09-01T20:03:13.396Z,2.60
2018-09-01T20:05:43.475Z,2.90
2018-09-01T20:08:14.063Z,2.60
2018-09-01T20:10:44.006Z,3.00
2018-09-01T20:13:15.053Z,2.97
2018-09-01T20:15:45.587Z,2.87
2018-09-01T20:18:16.168Z,2.80
2018-09-01T20:20:46.328Z,2.60
2018-09-01T20:23:16.927Z,2.77
2018-09-01T20:25:47.069Z,3.00
2018-09-01T20:28:17.198Z,3.10
2018-09-01T20:30:47.655Z,2.70
2018-09-01T20:33:17.713Z,2.80
2018-09-01T20:35:53.214Z,2.33
2018-09-01T20:38:24.706Z,3.03
2018-09-01T20:40:54.786Z,2.93
2018-09-01T20:43:25.450Z,2.93
2018-09-01T20:45:56.080Z,3.00
2018-09-01T20:48:26.235Z,2.83
2018-09-01T20:50:56.303Z,2.90
2018-09-01T20:53:26.489Z,2.87
2018-09-01T20:55:56.956Z,3.17
2018-09-01T20:58:27.380Z,3.33
2018-09-01T21:00:57.459Z,3.10
2018-09-01T21:03:27.637Z,2.80
2018-09-01T21:05:58.000Z,2.93
2018-09-01T21:08:28.141Z,2.77
2018-09-01T21:10:58.181Z,3.43
2018-09-01T21:13:28.538Z,3.10
2018-09-01T21:15:58.953Z,3.30
2018-09-01T21:18:28.977Z,2.57
2018-09-01T21:20:59.058Z,2.87
2018-09-01T21:23:29.405Z,2.67
2018-09-01T21:25:59.413Z,2.70
2018-09-01T21:28:29.591Z,2.90
2018-09-01T21:30:59.917Z,2.60
2018-09-01T21:33:30.784Z,3.23
2018-09-01T21:36:01.644Z,2.90
2018-09-01T21:38:31.810Z,3.13
2018-09-01T21:41:02.387Z,3.67
2018-09-01T21:43:32.954Z,3.07
2018-09-01T21:46:03.033Z,2.97
2018-09-01T21:48:33.580Z,3.07
2018-09-01T21:51:04.070Z,3.40
2018-09-01T21:53:35.077Z,3.07
2018-09-01T21:56:05.594Z,3.03
2018-09-01T21:58:36.198Z,2.80
2018-09-01T22:01:11.694Z,2.87
2018-09-01T22:03:49.094Z,3.03
2018-09-01T22:06:20.789Z,2.83
2018-09-01T22:08:50.729Z,3.27
2018-09-01T22:11:20.854Z,3.20
2018-09-01T22:13:50.870Z,3.47
2018-09-01T22:16:21.381Z,3.03
2018-09-01T22:18:51.476Z,3.00
2018-09-01T22:21:22.536Z,3.43
2018-09-01T22:23:52.622Z,3.20
2018-09-01T22:26:23.680Z,3.10
2018-09-01T22:28:54.932Z,3.47
2018-09-01T22:31:26.113Z,3.30
2018-09-01T22:33:56.061Z,3.20
2018-09-01T22:36:26.205Z,3.40
2018-09-01T22:38:56.780Z,3.40
2018-09-01T22:41:27.902Z,3.57
2018-09-01T22:43:58.007Z,3.47
2018-09-01T22:46:29.146Z,3.20
2018-09-01T22:48:59.173Z,3.17
2018-09-01T22:51:29.656Z,3.17
2018-09-01T22:54:00.220Z,3.63
2018-09-01T22:56:30.988Z,3.30
2018-09-01T22:59:01.045Z,3.30
2018-09-01T23:01:31.599Z,3.70
2018-09-01T23:04:01.824Z,3.33
2018-09-01T23:06:32.390Z,3.20
2018-09-01T23:09:02.432Z,3.40
2018-09-01T23:11:32.484Z,3.60
2018-09-01T23:14:03.123Z,3.47
2018-09-01T23:16:33.254Z,3.73
2018-09-01T23:19:03.386Z,3.20
2018-09-01T23:21:34.091Z,3.30
2018-09-01T23:24:04.625Z,3.50
2018-09-01T23:26:34.683Z,3.27
2018-09-01T23:29:04.822Z,3.40
2018-09-01T23:31:36.068Z,3.33
2018-09-01T23:34:06.215Z,3.43
2018-09-01T23:36:36.757Z,3.27
2018-09-01T23:39:08.981Z,3.60
2018-09-01T23:41:39.030Z,3.53
2018-09-01T23:44:09.455Z,3.37
2018-09-01T23:46:40.250Z,3.47
2018-09-01T23:49:10.626Z,3.13
2018-09-01T23:51:40.827Z,3.60
2018-09-01T23:54:10.971Z,3.47
2018-09-01T23:56:41.460Z,3.50
2018-09-01T23:59:11.930Z,4.00
